Terminal Aerodrome Forecast
Issued by NWS

Current Version | Previous Version | Text Only | Print | Product List | Glossary On
Versions: 1 2 3 4 5 6 7 8 9 10 11 12 13 14 15 16 17 18 19 20 21 22 23 24 25 26 27 28 29 30 31 32 33 34 35 36 37 38 39 40
000
FTPA31 PHFO 031700
TAFOGG
TAF
PHOG 031733Z 0318/0418 04010KT P6SM SCT020 SCT045
     FM032000 04015G25KT P6SM SCT020 SCT045 BKN250
     FM040500 05012KT P6SM SCT050 OVC200
     FM041000 03009KT P6SM SCT050 OVC200
      AMD LTD TO WX VIS AND WIND 0409/0416=

USA.gov is the U.S. government's official web portal to all federal, state and local government web resources and services.